sensor_id;sensor_type;location;lat;lon;timestamp;P1;durP1;ratioP1;P2;durP2;ratioP2
67051;SDS011;53957;47.222;18.670;2022-10-31T00:02:24;15.00;;;9.85;;
67051;SDS011;53957;47.222;18.670;2022-10-31T00:05:27;14.60;;;9.25;;
67051;SDS011;53957;47.222;18.670;2022-10-31T00:08:30;13.00;;;8.27;;
67051;SDS011;53957;47.222;18.670;2022-10-31T00:11:33;12.30;;;9.27;;
67051;SDS011;53957;47.222;18.670;2022-10-31T00:14:36;14.00;;;9.23;;
67051;SDS011;53957;47.222;18.670;2022-10-31T00:17:39;11.25;;;8.32;;
67051;SDS011;53957;47.222;18.670;2022-10-31T00:20:41;15.57;;;9.20;;
67051;SDS011;53957;47.222;18.670;2022-10-31T00:23:45;13.85;;;8.30;;
67051;SDS011;53957;47.222;18.670;2022-10-31T00:26:48;13.10;;;8.95;;
67051;SDS011;53957;47.222;18.670;2022-10-31T00:29:51;13.10;;;9.15;;
67051;SDS011;53957;47.222;18.670;2022-10-31T00:32:53;13.02;;;8.45;;
67051;SDS011;53957;47.222;18.670;2022-10-31T00:35:57;12.73;;;9.07;;
67051;SDS011;53957;47.222;18.670;2022-10-31T00:38:59;15.68;;;8.40;;
67051;SDS011;53957;47.222;18.670;2022-10-31T00:42:04;12.77;;;9.23;;
67051;SDS011;53957;47.222;18.670;2022-10-31T00:45:10;12.05;;;8.73;;
67051;SDS011;53957;47.222;18.670;2022-10-31T00:48:13;17.77;;;9.10;;
67051;SDS011;53957;47.222;18.670;2022-10-31T00:51:16;14.32;;;8.90;;
67051;SDS011;53957;47.222;18.670;2022-10-31T00:54:19;14.77;;;9.27;;
67051;SDS011;53957;47.222;18.670;2022-10-31T00:57:22;11.07;;;8.70;;
67051;SDS011;53957;47.222;18.670;2022-10-31T01:00:25;11.30;;;8.52;;
67051;SDS011;53957;47.222;18.670;2022-10-31T01:03:29;14.68;;;9.15;;
67051;SDS011;53957;47.222;18.670;2022-10-31T01:06:35;13.52;;;8.80;;
67051;SDS011;53957;47.222;18.670;2022-10-31T01:09:38;14.05;;;8.88;;
67051;SDS011;53957;47.222;18.670;2022-10-31T01:12:42;15.25;;;9.75;;
67051;SDS011;53957;47.222;18.670;2022-10-31T01:15:53;13.98;;;9.75;;
67051;SDS011;53957;47.222;18.670;2022-10-31T01:18:57;13.80;;;9.45;;
67051;SDS011;53957;47.222;18.670;2022-10-31T01:22:00;19.50;;;10.13;;
67051;SDS011;53957;47.222;18.670;2022-10-31T01:25:04;18.95;;;10.18;;
67051;SDS011;53957;47.222;18.670;2022-10-31T01:28:07;14.90;;;9.57;;
67051;SDS011;53957;47.222;18.670;2022-10-31T01:31:10;14.18;;;10.27;;
67051;SDS011;53957;47.222;18.670;2022-10-31T01:34:14;19.77;;;10.07;;
67051;SDS011;53957;47.222;18.670;2022-10-31T01:37:19;15.13;;;10.30;;
67051;SDS011;53957;47.222;18.670;2022-10-31T01:40:21;20.95;;;9.82;;
67051;SDS011;53957;47.222;18.670;2022-10-31T01:43:41;13.02;;;9.15;;
67051;SDS011;53957;47.222;18.670;2022-10-31T01:47:17;14.70;;;9.18;;
67051;SDS011;53957;47.222;18.670;2022-10-31T01:50:31;13.07;;;9.15;;
67051;SDS011;53957;47.222;18.670;2022-10-31T01:53:38;13.07;;;9.23;;
67051;SDS011;53957;47.222;18.670;2022-10-31T01:56:43;19.55;;;9.70;;
67051;SDS011;53957;47.222;18.670;2022-10-31T01:59:51;11.23;;;8.32;;
67051;SDS011;53957;47.222;18.670;2022-10-31T02:02:58;10.88;;;8.90;;
67051;SDS011;53957;47.222;18.670;2022-10-31T02:06:03;15.52;;;8.80;;
67051;SDS011;53957;47.222;18.670;2022-10-31T02:09:14;18.58;;;8.90;;
67051;SDS011;53957;47.222;18.670;2022-10-31T02:12:19;14.82;;;8.63;;
67051;SDS011;53957;47.222;18.670;2022-10-31T02:15:22;9.48;;;7.35;;
67051;SDS011;53957;47.222;18.670;2022-10-31T02:18:27;12.48;;;7.93;;
67051;SDS011;53957;47.222;18.670;2022-10-31T02:21:37;13.23;;;8.07;;
67051;SDS011;53957;47.222;18.670;2022-10-31T02:28:25;14.13;;;8.00;;
67051;SDS011;53957;47.222;18.670;2022-10-31T02:31:52;9.40;;;7.25;;
67051;SDS011;53957;47.222;18.670;2022-10-31T02:38:37;8.82;;;7.32;;
67051;SDS011;53957;47.222;18.670;2022-10-31T02:45:11;8.85;;;6.87;;
67051;SDS011;53957;47.222;18.670;2022-10-31T02:48:28;8.35;;;6.87;;
67051;SDS011;53957;47.222;18.670;2022-10-31T02:51:38;12.77;;;7.62;;
67051;SDS011;53957;47.222;18.670;2022-10-31T02:54:42;12.30;;;7.10;;
67051;SDS011;53957;47.222;18.670;2022-10-31T02:57:47;10.48;;;7.03;;
67051;SDS011;53957;47.222;18.670;2022-10-31T03:00:58;11.12;;;6.32;;
67051;SDS011;53957;47.222;18.670;2022-10-31T03:11:03;9.27;;;7.35;;
67051;SDS011;53957;47.222;18.670;2022-10-31T03:14:12;12.05;;;6.57;;
67051;SDS011;53957;47.222;18.670;2022-10-31T03:17:28;18.42;;;6.82;;
67051;SDS011;53957;47.222;18.670;2022-10-31T03:20:59;8.05;;;7.25;;
67051;SDS011;53957;47.222;18.670;2022-10-31T03:24:10;7.45;;;6.40;;
67051;SDS011;53957;47.222;18.670;2022-10-31T03:27:16;12.02;;;6.05;;
67051;SDS011;53957;47.222;18.670;2022-10-31T03:30:24;7.50;;;6.32;;
67051;SDS011;53957;47.222;18.670;2022-10-31T03:33:29;7.35;;;6.20;;
67051;SDS011;53957;47.222;18.670;2022-10-31T03:36:37;7.43;;;6.65;;
67051;SDS011;53957;47.222;18.670;2022-10-31T03:39:42;8.52;;;6.55;;
67051;SDS011;53957;47.222;18.670;2022-10-31T03:42:50;8.02;;;6.20;;
67051;SDS011;53957;47.222;18.670;2022-10-31T03:45:57;8.80;;;7.10;;
67051;SDS011;53957;47.222;18.670;2022-10-31T03:49:04;8.20;;;7.05;;
67051;SDS011;53957;47.222;18.670;2022-10-31T03:55:24;6.15;;;5.55;;
67051;SDS011;53957;47.222;18.670;2022-10-31T03:58:44;10.60;;;6.43;;
67051;SDS011;53957;47.222;18.670;2022-10-31T04:01:53;7.90;;;6.35;;
67051;SDS011;53957;47.222;18.670;2022-10-31T04:05:00;6.93;;;5.72;;
67051;SDS011;53957;47.222;18.670;2022-10-31T04:08:07;8.57;;;6.03;;
67051;SDS011;53957;47.222;18.670;2022-10-31T04:11:13;8.95;;;6.87;;
67051;SDS011;53957;47.222;18.670;2022-10-31T04:14:22;12.25;;;6.00;;
67051;SDS011;53957;47.222;18.670;2022-10-31T04:17:29;9.75;;;6.07;;
67051;SDS011;53957;47.222;18.670;2022-10-31T04:20:40;11.35;;;6.62;;
67051;SDS011;53957;47.222;18.670;2022-10-31T04:23:45;10.32;;;6.72;;
67051;SDS011;53957;47.222;18.670;2022-10-31T04:26:48;18.00;;;5.68;;
67051;SDS011;53957;47.222;18.670;2022-10-31T04:29:53;10.13;;;5.90;;
67051;SDS011;53957;47.222;18.670;2022-10-31T04:32:56;8.77;;;6.30;;
67051;SDS011;53957;47.222;18.670;2022-10-31T04:36:00;11.35;;;5.65;;
67051;SDS011;53957;47.222;18.670;2022-10-31T04:39:03;8.70;;;5.50;;
67051;SDS011;53957;47.222;18.670;2022-10-31T04:42:07;6.95;;;6.10;;
67051;SDS011;53957;47.222;18.670;2022-10-31T04:45:09;8.07;;;5.68;;
67051;SDS011;53957;47.222;18.670;2022-10-31T04:48:18;7.47;;;6.20;;
67051;SDS011;53957;47.222;18.670;2022-10-31T04:51:21;6.50;;;5.85;;
67051;SDS011;53957;47.222;18.670;2022-10-31T04:54:25;7.15;;;5.90;;
67051;SDS011;53957;47.222;18.670;2022-10-31T04:57:30;6.75;;;6.05;;
67051;SDS011;53957;47.222;18.670;2022-10-31T05:00:34;6.15;;;5.35;;
67051;SDS011;53957;47.222;18.670;2022-10-31T05:03:37;10.35;;;5.60;;
67051;SDS011;53957;47.222;18.670;2022-10-31T05:06:42;5.95;;;5.35;;
67051;SDS011;53957;47.222;18.670;2022-10-31T05:09:44;11.05;;;6.20;;
67051;SDS011;53957;47.222;18.670;2022-10-31T05:12:49;6.25;;;5.65;;
67051;SDS011;53957;47.222;18.670;2022-10-31T05:16:04;8.35;;;5.80;;
67051;SDS011;53957;47.222;18.670;2022-10-31T05:19:09;6.65;;;5.78;;
67051;SDS011;53957;47.222;18.670;2022-10-31T05:22:15;7.45;;;5.25;;
67051;SDS011;53957;47.222;18.670;2022-10-31T05:25:18;6.57;;;5.65;;
67051;SDS011;53957;47.222;18.670;2022-10-31T05:28:24;6.18;;;5.53;;
67051;SDS011;53957;47.222;18.670;2022-10-31T05:31:28;6.12;;;5.53;;
67051;SDS011;53957;47.222;18.670;2022-10-31T05:34:31;13.00;;;6.53;;
67051;SDS011;53957;47.222;18.670;2022-10-31T05:37:36;6.47;;;5.75;;
67051;SDS011;53957;47.222;18.670;2022-10-31T05:40:40;6.70;;;5.62;;
67051;SDS011;53957;47.222;18.670;2022-10-31T05:43:43;8.95;;;5.90;;
67051;SDS011;53957;47.222;18.670;2022-10-31T05:46:46;6.97;;;5.72;;
67051;SDS011;53957;47.222;18.670;2022-10-31T05:49:52;6.35;;;5.15;;
67051;SDS011;53957;47.222;18.670;2022-10-31T05:52:59;5.57;;;5.03;;
67051;SDS011;53957;47.222;18.670;2022-10-31T05:56:03;7.35;;;5.32;;
67051;SDS011;53957;47.222;18.670;2022-10-31T05:59:07;8.30;;;5.75;;
67051;SDS011;53957;47.222;18.670;2022-10-31T06:02:10;7.75;;;5.57;;
67051;SDS011;53957;47.222;18.670;2022-10-31T06:05:25;6.72;;;5.47;;
67051;SDS011;53957;47.222;18.670;2022-10-31T06:08:29;6.68;;;5.25;;
67051;SDS011;53957;47.222;18.670;2022-10-31T06:11:34;8.52;;;6.37;;
67051;SDS011;53957;47.222;18.670;2022-10-31T06:14:45;8.88;;;6.95;;
67051;SDS011;53957;47.222;18.670;2022-10-31T06:18:10;13.35;;;9.20;;
67051;SDS011;53957;47.222;18.670;2022-10-31T06:21:33;11.93;;;7.70;;
67051;SDS011;53957;47.222;18.670;2022-10-31T06:24:37;13.40;;;7.87;;
67051;SDS011;53957;47.222;18.670;2022-10-31T06:27:41;18.17;;;10.95;;
67051;SDS011;53957;47.222;18.670;2022-10-31T06:30:45;16.70;;;10.32;;
67051;SDS011;53957;47.222;18.670;2022-10-31T06:33:48;16.50;;;9.60;;
67051;SDS011;53957;47.222;18.670;2022-10-31T06:36:51;16.02;;;9.57;;
67051;SDS011;53957;47.222;18.670;2022-10-31T06:39:56;18.08;;;11.38;;
67051;SDS011;53957;47.222;18.670;2022-10-31T06:42:59;23.33;;;11.82;;
67051;SDS011;53957;47.222;18.670;2022-10-31T06:46:04;18.77;;;12.07;;
67051;SDS011;53957;47.222;18.670;2022-10-31T06:49:08;19.08;;;10.80;;
67051;SDS011;53957;47.222;18.670;2022-10-31T06:52:11;18.17;;;11.12;;
67051;SDS011;53957;47.222;18.670;2022-10-31T06:55:14;16.90;;;10.30;;
67051;SDS011;53957;47.222;18.670;2022-10-31T06:58:17;15.20;;;9.32;;
67051;SDS011;53957;47.222;18.670;2022-10-31T07:01:50;15.00;;;9.02;;
67051;SDS011;53957;47.222;18.670;2022-10-31T07:04:53;17.23;;;10.38;;
67051;SDS011;53957;47.222;18.670;2022-10-31T07:07:59;17.05;;;9.77;;
67051;SDS011;53957;47.222;18.670;2022-10-31T07:11:05;14.68;;;10.32;;
67051;SDS011;53957;47.222;18.670;2022-10-31T07:14:08;18.90;;;11.25;;
67051;SDS011;53957;47.222;18.670;2022-10-31T07:17:12;16.45;;;10.98;;
67051;SDS011;53957;47.222;18.670;2022-10-31T07:20:16;20.62;;;10.68;;
67051;SDS011;53957;47.222;18.670;2022-10-31T07:23:19;18.05;;;10.55;;
67051;SDS011;53957;47.222;18.670;2022-10-31T07:26:23;18.85;;;11.55;;
67051;SDS011;53957;47.222;18.670;2022-10-31T07:29:26;17.70;;;10.10;;
67051;SDS011;53957;47.222;18.670;2022-10-31T07:32:37;13.35;;;9.45;;
67051;SDS011;53957;47.222;18.670;2022-10-31T07:35:41;13.25;;;9.23;;
67051;SDS011;53957;47.222;18.670;2022-10-31T07:38:44;14.15;;;8.07;;
67051;SDS011;53957;47.222;18.670;2022-10-31T07:41:48;10.65;;;8.10;;
67051;SDS011;53957;47.222;18.670;2022-10-31T07:44:52;9.73;;;6.68;;
67051;SDS011;53957;47.222;18.670;2022-10-31T07:48:01;9.50;;;7.10;;
67051;SDS011;53957;47.222;18.670;2022-10-31T07:51:13;10.07;;;7.45;;
67051;SDS011;53957;47.222;18.670;2022-10-31T07:54:18;10.13;;;7.25;;
67051;SDS011;53957;47.222;18.670;2022-10-31T07:57:22;9.80;;;7.37;;
67051;SDS011;53957;47.222;18.670;2022-10-31T08:00:27;10.15;;;7.72;;
67051;SDS011;53957;47.222;18.670;2022-10-31T08:03:50;9.95;;;7.55;;
67051;SDS011;53957;47.222;18.670;2022-10-31T08:06:57;10.80;;;8.40;;
67051;SDS011;53957;47.222;18.670;2022-10-31T08:10:01;8.75;;;6.80;;
67051;SDS011;53957;47.222;18.670;2022-10-31T08:13:11;7.90;;;6.47;;
67051;SDS011;53957;47.222;18.670;2022-10-31T08:16:17;7.45;;;6.30;;
67051;SDS011;53957;47.222;18.670;2022-10-31T08:19:23;8.40;;;6.25;;
67051;SDS011;53957;47.222;18.670;2022-10-31T08:22:27;8.30;;;6.12;;
67051;SDS011;53957;47.222;18.670;2022-10-31T08:25:30;7.68;;;5.90;;
67051;SDS011;53957;47.222;18.670;2022-10-31T08:28:40;9.20;;;7.25;;
67051;SDS011;53957;47.222;18.670;2022-10-31T08:32:03;10.63;;;8.18;;
67051;SDS011;53957;47.222;18.670;2022-10-31T08:35:19;16.30;;;12.80;;
67051;SDS011;53957;47.222;18.670;2022-10-31T08:38:46;10.00;;;7.87;;
67051;SDS011;53957;47.222;18.670;2022-10-31T08:42:14;22.33;;;7.93;;
67051;SDS011;53957;47.222;18.670;2022-10-31T08:45:41;10.77;;;7.87;;
67051;SDS011;53957;47.222;18.670;2022-10-31T08:52:25;12.63;;;7.95;;
67051;SDS011;53957;47.222;18.670;2022-10-31T08:56:08;13.38;;;7.82;;
67051;SDS011;53957;47.222;18.670;2022-10-31T08:59:15;13.98;;;9.35;;
67051;SDS011;53957;47.222;18.670;2022-10-31T09:02:19;14.77;;;9.32;;
67051;SDS011;53957;47.222;18.670;2022-10-31T09:05:23;16.98;;;10.80;;
67051;SDS011;53957;47.222;18.670;2022-10-31T09:08:28;16.20;;;9.55;;
67051;SDS011;53957;47.222;18.670;2022-10-31T09:11:33;18.10;;;10.73;;
67051;SDS011;53957;47.222;18.670;2022-10-31T09:14:39;18.20;;;11.45;;
67051;SDS011;53957;47.222;18.670;2022-10-31T09:17:47;11.60;;;8.30;;
67051;SDS011;53957;47.222;18.670;2022-10-31T09:20:53;13.27;;;9.52;;
67051;SDS011;53957;47.222;18.670;2022-10-31T09:23:57;11.02;;;8.07;;
67051;SDS011;53957;47.222;18.670;2022-10-31T09:27:02;34.75;;;26.05;;
67051;SDS011;53957;47.222;18.670;2022-10-31T09:30:06;18.02;;;13.25;;
67051;SDS011;53957;47.222;18.670;2022-10-31T09:33:10;18.27;;;11.75;;
67051;SDS011;53957;47.222;18.670;2022-10-31T09:36:16;38.33;;;19.02;;
67051;SDS011;53957;47.222;18.670;2022-10-31T09:39:19;17.35;;;11.77;;
67051;SDS011;53957;47.222;18.670;2022-10-31T09:49:45;16.87;;;11.38;;
67051;SDS011;53957;47.222;18.670;2022-10-31T09:53:00;17.48;;;10.93;;
67051;SDS011;53957;47.222;18.670;2022-10-31T09:56:09;18.27;;;11.60;;
67051;SDS011;53957;47.222;18.670;2022-10-31T09:59:21;18.27;;;11.77;;
67051;SDS011;53957;47.222;18.670;2022-10-31T10:02:38;16.17;;;10.90;;
67051;SDS011;53957;47.222;18.670;2022-10-31T10:05:59;17.30;;;10.32;;
67051;SDS011;53957;47.222;18.670;2022-10-31T10:09:22;12.98;;;8.93;;
67051;SDS011;53957;47.222;18.670;2022-10-31T10:20:56;21.50;;;10.75;;
67051;SDS011;53957;47.222;18.670;2022-10-31T10:30:36;23.65;;;13.77;;
67051;SDS011;53957;47.222;18.670;2022-10-31T10:40:25;28.55;;;15.82;;
67051;SDS011;53957;47.222;18.670;2022-10-31T10:43:31;25.95;;;14.48;;
67051;SDS011;53957;47.222;18.670;2022-10-31T10:46:43;31.37;;;15.85;;
67051;SDS011;53957;47.222;18.670;2022-10-31T11:00:45;32.17;;;18.08;;
67051;SDS011;53957;47.222;18.670;2022-10-31T11:03:50;29.80;;;15.35;;
67051;SDS011;53957;47.222;18.670;2022-10-31T11:06:57;33.33;;;20.30;;
67051;SDS011;53957;47.222;18.670;2022-10-31T11:10:11;36.25;;;17.65;;
67051;SDS011;53957;47.222;18.670;2022-10-31T11:13:22;31.70;;;15.93;;
67051;SDS011;53957;47.222;18.670;2022-10-31T11:19:28;36.30;;;17.35;;
67051;SDS011;53957;47.222;18.670;2022-10-31T11:22:31;29.37;;;14.93;;
67051;SDS011;53957;47.222;18.670;2022-10-31T11:25:34;37.53;;;17.15;;
67051;SDS011;53957;47.222;18.670;2022-10-31T11:28:58;40.15;;;18.02;;
67051;SDS011;53957;47.222;18.670;2022-10-31T11:32:02;31.62;;;15.27;;
67051;SDS011;53957;47.222;18.670;2022-10-31T11:35:08;36.63;;;16.80;;
67051;SDS011;53957;47.222;18.670;2022-10-31T11:41:29;27.58;;;15.68;;
67051;SDS011;53957;47.222;18.670;2022-10-31T11:44:32;37.83;;;17.98;;
67051;SDS011;53957;47.222;18.670;2022-10-31T11:47:52;39.58;;;18.37;;
67051;SDS011;53957;47.222;18.670;2022-10-31T11:51:02;37.97;;;19.08;;
67051;SDS011;53957;47.222;18.670;2022-10-31T13:11:51;30.23;;;15.80;;
67051;SDS011;53957;47.222;18.670;2022-10-31T13:15:01;31.52;;;16.00;;
67051;SDS011;53957;47.222;18.670;2022-10-31T13:18:11;30.92;;;15.65;;
67051;SDS011;53957;47.222;18.670;2022-10-31T13:21:23;27.83;;;15.13;;
67051;SDS011;53957;47.222;18.670;2022-10-31T13:25:17;29.02;;;15.30;;
67051;SDS011;53957;47.222;18.670;2022-10-31T13:28:12;24.65;;;13.70;;
67051;SDS011;53957;47.222;18.670;2022-10-31T13:31:27;24.42;;;13.75;;
67051;SDS011;53957;47.222;18.670;2022-10-31T13:34:34;22.27;;;12.35;;
67051;SDS011;53957;47.222;18.670;2022-10-31T13:37:48;23.35;;;12.55;;
67051;SDS011;53957;47.222;18.670;2022-10-31T13:41:01;19.20;;;11.88;;
67051;SDS011;53957;47.222;18.670;2022-10-31T13:44:22;17.90;;;10.82;;
67051;SDS011;53957;47.222;18.670;2022-10-31T13:47:28;12.77;;;8.55;;
67051;SDS011;53957;47.222;18.670;2022-10-31T13:50:32;13.50;;;8.50;;
67051;SDS011;53957;47.222;18.670;2022-10-31T13:56:50;17.37;;;10.52;;
67051;SDS011;53957;47.222;18.670;2022-10-31T13:59:55;19.10;;;11.57;;
67051;SDS011;53957;47.222;18.670;2022-10-31T14:03:02;21.85;;;11.43;;
67051;SDS011;53957;47.222;18.670;2022-10-31T14:06:06;21.42;;;11.70;;
67051;SDS011;53957;47.222;18.670;2022-10-31T14:09:22;20.52;;;11.68;;
67051;SDS011;53957;47.222;18.670;2022-10-31T14:12:39;26.70;;;14.60;;
67051;SDS011;53957;47.222;18.670;2022-10-31T14:15:54;26.83;;;13.50;;
67051;SDS011;53957;47.222;18.670;2022-10-31T14:19:04;21.87;;;13.57;;
67051;SDS011;53957;47.222;18.670;2022-10-31T14:22:19;20.23;;;12.30;;
67051;SDS011;53957;47.222;18.670;2022-10-31T14:25:25;18.90;;;12.35;;
67051;SDS011;53957;47.222;18.670;2022-10-31T14:28:34;23.17;;;12.52;;
67051;SDS011;53957;47.222;18.670;2022-10-31T14:31:39;19.83;;;13.07;;
67051;SDS011;53957;47.222;18.670;2022-10-31T14:41:25;18.92;;;12.63;;
67051;SDS011;53957;47.222;18.670;2022-10-31T14:51:11;21.55;;;13.30;;
67051;SDS011;53957;47.222;18.670;2022-10-31T14:54:25;28.52;;;13.85;;
67051;SDS011;53957;47.222;18.670;2022-10-31T14:57:34;23.23;;;12.55;;
67051;SDS011;53957;47.222;18.670;2022-10-31T15:00:39;20.02;;;12.25;;
67051;SDS011;53957;47.222;18.670;2022-10-31T15:03:45;22.52;;;12.37;;
67051;SDS011;53957;47.222;18.670;2022-10-31T15:07:14;17.75;;;11.63;;
67051;SDS011;53957;47.222;18.670;2022-10-31T15:10:27;21.52;;;12.73;;
